Time;durP1;ratioP1;P1;durP2;ratioP2;P2;SDS_P1;SDS_P2;PMS_P1;PMS_P2;Temp;Humidity;BMP_temperature;BMP_pressure;BME280_temperature;BME280_humidity;BME280_pressure;Samples;Min_cycle;Max_cycle;Signal;HPM_P1;HPM_P2
2021/09/14 00:01:09;;;;;;;5.88;5.28;;;;;;;;;;5013260;28;20116;-55
2021/09/14 00:03:35;;;;;;;5.65;4.72;;;;;;;;;;5014212;28;20022;-57
2021/09/14 00:06:00;;;;;;;5.90;5.40;;;;;;;;;;5015465;28;20034;-56
2021/09/14 00:08:26;;;;;;;7.00;5.47;;;;;;;;;;5015359;28;20037;-59
2021/09/14 00:10:51;;;;;;;6.18;5.57;;;;;;;;;;5016644;28;20529;-59
2021/09/14 00:13:16;;;;;;;5.03;4.63;;;;;;;;;;5015083;28;20029;-60
2021/09/14 00:15:42;;;;;;;7.15;6.45;;;;;;;;;;5013588;28;20033;-58
2021/09/14 00:18:07;;;;;;;5.32;4.82;;;;;;;;;;5015581;28;20029;-58
2021/09/14 00:20:32;;;;;;;5.55;5.05;;;;;;;;;;5016395;28;20017;-58
2021/09/14 00:22:58;;;;;;;5.47;5.00;;;;;;;;;;5015015;28;20359;-59
2021/09/14 00:25:23;;;;;;;7.93;5.60;;;;;;;;;;5015674;28;20032;-57
2021/09/14 00:27:48;;;;;;;7.50;5.47;;;;;;;;;;5016759;28;20029;-60
2021/09/14 00:30:14;;;;;;;6.18;5.53;;;;;;;;;;5015270;28;20410;-57
2021/09/14 00:32:39;;;;;;;5.95;5.45;;;;;;;;;;5013655;28;20021;-57
2021/09/14 00:35:05;;;;;;;7.57;5.60;;;;;;;;;;5014295;28;20049;-58
2021/09/14 00:37:30;;;;;;;5.63;5.05;;;;;;;;;;5015505;28;20036;-58
2021/09/14 00:39:55;;;;;;;6.35;5.82;;;;;;;;;;5014632;28;20029;-59
2021/09/14 00:42:21;;;;;;;5.30;4.80;;;;;;;;;;5012691;28;20354;-60
2021/09/14 00:44:46;;;;;;;5.50;4.95;;;;;;;;;;5013197;28;20047;-60
2021/09/14 00:47:12;;;;;;;5.43;4.80;;;;;;;;;;5014704;28;20053;-60
2021/09/14 00:49:37;;;;;;;5.57;5.07;;;;;;;;;;5015283;28;20473;-59
2021/09/14 00:52:02;;;;;;;6.20;5.15;;;;;;;;;;5015809;28;20555;-58
2021/09/14 00:54:28;;;;;;;5.30;4.80;;;;;;;;;;5014198;28;20052;-59
2021/09/14 00:56:55;;;;;;;5.97;5.32;;;;;;;;;;5014708;28;20033;-58
2021/09/14 00:59:20;;;;;;;6.65;5.80;;;;;;;;;;5013989;28;20025;-59
2021/09/14 01:01:45;;;;;;;5.57;5.07;;;;;;;;;;5014184;28;20033;-57
2021/09/14 01:04:11;;;;;;;5.60;5.10;;;;;;;;;;5014378;28;20021;-60
2021/09/14 01:06:36;;;;;;;8.75;6.30;;;;;;;;;;5014294;28;20038;-60
2021/09/14 01:09:02;;;;;;;5.65;5.15;;;;;;;;;;5014574;28;20026;-60
2021/09/14 01:11:28;;;;;;;6.20;5.60;;;;;;;;;;5015179;28;20026;-60
2021/09/14 01:14:03;;;;;;;5.47;5.00;;;;;;;;;;5014755;28;20025;-60
2021/09/14 01:16:29;;;;;;;6.88;5.65;;;;;;;;;;5012880;28;20062;-59
2021/09/14 01:18:54;;;;;;;7.10;6.38;;;;;;;;;;5012533;28;20120;-56
2021/09/14 01:21:22;;;;;;;6.93;6.07;;;;;;;;;;5013177;28;20043;-57
2021/09/14 01:23:48;;;;;;;5.93;5.43;;;;;;;;;;5014637;28;20457;-58
2021/09/14 01:26:13;;;;;;;6.03;5.40;;;;;;;;;;5012772;28;20355;-61
2021/09/14 01:28:38;;;;;;;6.35;5.68;;;;;;;;;;5017110;28;20382;-59
2021/09/14 01:31:03;;;;;;;6.38;5.88;;;;;;;;;;5015153;28;20056;-61
2021/09/14 01:33:28;;;;;;;6.22;5.63;;;;;;;;;;5013928;28;20053;-60
2021/09/14 01:35:54;;;;;;;6.55;6.05;;;;;;;;;;5015514;28;20054;-60
2021/09/14 01:38:19;;;;;;;6.90;6.20;;;;;;;;;;5014137;28;20497;-61
2021/09/14 01:40:47;;;;;;;6.45;5.85;;;;;;;;;;5015616;28;20022;-61
2021/09/14 01:43:13;;;;;;;6.47;5.88;;;;;;;;;;5016400;28;20026;-58
2021/09/14 01:45:38;;;;;;;5.75;5.28;;;;;;;;;;5015531;28;20528;-60
2021/09/14 01:48:03;;;;;;;6.28;5.68;;;;;;;;;;5013082;28;20026;-61
2021/09/14 01:50:29;;;;;;;6.07;5.60;;;;;;;;;;5011858;28;20097;-59
2021/09/14 01:52:55;;;;;;;7.10;6.43;;;;;;;;;;5014250;28;20463;-57
2021/09/14 01:55:20;;;;;;;6.05;5.45;;;;;;;;;;5013983;28;20489;-55
2021/09/14 01:57:46;;;;;;;6.65;6.03;;;;;;;;;;5014840;28;20061;-58
2021/09/14 02:00:16;;;;;;;6.35;5.75;;;;;;;;;;5012569;28;20026;-59
2021/09/14 02:05:19;;;;;;;7.93;5.75;;;;;;;;;;5013899;28;20045;-60
2021/09/14 02:58:52;;;;;;;6.53;5.93;;;;;;;;;;5019398;28;20829;-60
2021/09/14 03:01:17;;;;;;;5.75;5.28;;;;;;;;;;5016553;28;20104;-61
2021/09/14 03:03:46;;;;;;;6.95;6.28;;;;;;;;;;5017178;28;20416;-58
2021/09/14 03:06:11;;;;;;;6.90;6.30;;;;;;;;;;5016133;28;20496;-62
2021/09/14 03:08:41;;;;;;;6.90;6.20;;;;;;;;;;5016726;28;20029;-55
2021/09/14 03:11:13;;;;;;;8.10;6.10;;;;;;;;;;5017648;28;20096;-60
2021/09/14 03:13:39;;;;;;;6.72;5.90;;;;;;;;;;5016861;28;20108;-60
2021/09/14 03:16:05;;;;;;;6.55;5.60;;;;;;;;;;5017387;28;20029;-62
2021/09/14 03:18:31;;;;;;;6.97;6.28;;;;;;;;;;5015427;28;20032;-58
2021/09/14 03:20:56;;;;;;;8.10;6.53;;;;;;;;;;5017492;28;20029;-60
2021/09/14 03:23:21;;;;;;;9.15;5.35;;;;;;;;;;5016472;28;20072;-60
2021/09/14 03:25:46;;;;;;;7.25;5.70;;;;;;;;;;5016387;28;20037;-57
2021/09/14 03:28:12;;;;;;;7.35;6.45;;;;;;;;;;5015134;28;20173;-59
2021/09/14 03:30:37;;;;;;;8.05;6.15;;;;;;;;;;5014564;28;20373;-60
2021/09/14 03:33:03;;;;;;;8.98;6.38;;;;;;;;;;5013618;28;20026;-60
2021/09/14 03:35:28;;;;;;;6.75;6.05;;;;;;;;;;5014813;28;20080;-60
2021/09/14 03:37:54;;;;;;;6.47;5.88;;;;;;;;;;5018293;28;20063;-60
2021/09/14 03:40:19;;;;;;;7.15;6.07;;;;;;;;;;5016410;28;20412;-58
2021/09/14 03:42:44;;;;;;;6.80;6.18;;;;;;;;;;5015353;28;20152;-59
2021/09/14 03:45:10;;;;;;;8.25;7.20;;;;;;;;;;5013807;28;20504;-59
2021/09/14 03:47:35;;;;;;;7.30;6.70;;;;;;;;;;5015574;28;20030;-59
2021/09/14 03:50:00;;;;;;;10.25;7.47;;;;;;;;;;5014712;28;20029;-61
2021/09/14 03:52:25;;;;;;;7.05;6.35;;;;;;;;;;5015512;28;20037;-58
2021/09/14 03:54:51;;;;;;;7.03;6.38;;;;;;;;;;5015441;28;20065;-59
2021/09/14 03:57:16;;;;;;;7.28;6.35;;;;;;;;;;5014181;28;20038;-58
2021/09/14 03:59:41;;;;;;;9.43;6.72;;;;;;;;;;5014887;28;20018;-60
2021/09/14 04:02:25;;;;;;;8.68;7.22;;;;;;;;;;5016771;28;20072;-61
2021/09/14 04:07:24;;;;;;;9.88;6.30;;;;;;;;;;5013950;28;20030;-57
2021/09/14 04:09:52;;;;;;;7.57;5.97;;;;;;;;;;5013951;28;20030;-55
2021/09/14 04:12:18;;;;;;;7.90;6.35;;;;;;;;;;5013040;28;20452;-58
2021/09/14 04:14:43;;;;;;;6.47;5.88;;;;;;;;;;5014098;28;20026;-58
2021/09/14 04:17:10;;;;;;;10.10;6.57;;;;;;;;;;5015152;28;20628;-59
2021/09/14 04:19:35;;;;;;;8.70;6.55;;;;;;;;;;5013009;28;20033;-61
2021/09/14 04:22:00;;;;;;;6.40;5.75;;;;;;;;;;5015793;28;20034;-59
2021/09/14 04:24:26;;;;;;;6.63;5.95;;;;;;;;;;5015773;28;20160;-60
2021/09/14 04:26:51;;;;;;;7.25;6.55;;;;;;;;;;5015394;28;20049;-60
2021/09/14 04:29:16;;;;;;;6.57;5.97;;;;;;;;;;5013071;28;20022;-60
2021/09/14 04:31:41;;;;;;;7.72;6.57;;;;;;;;;;5014591;28;20496;-56
2021/09/14 04:34:06;;;;;;;6.60;5.78;;;;;;;;;;5014634;28;20053;-56
2021/09/14 04:36:32;;;;;;;8.07;6.93;;;;;;;;;;5014416;28;20517;-54
2021/09/14 04:38:57;;;;;;;6.90;6.20;;;;;;;;;;5017715;28;20036;-55
2021/09/14 04:41:22;;;;;;;6.93;6.22;;;;;;;;;;5018516;28;20693;-55
2021/09/14 04:43:47;;;;;;;7.22;6.60;;;;;;;;;;5012442;28;20512;-61
2021/09/14 04:46:13;;;;;;;6.90;6.22;;;;;;;;;;5013608;28;20110;-55
2021/09/14 04:48:38;;;;;;;8.68;6.95;;;;;;;;;;5012510;28;20107;-58
2021/09/14 04:51:03;;;;;;;7.07;6.38;;;;;;;;;;5014253;28;20080;-62
2021/09/14 04:53:28;;;;;;;7.40;6.70;;;;;;;;;;5016914;28;20469;-60
2021/09/14 04:55:54;;;;;;;7.68;6.93;;;;;;;;;;5013908;28;20036;-61
2021/09/14 04:58:19;;;;;;;7.65;6.07;;;;;;;;;;5014153;28;20025;-57
2021/09/14 05:00:44;;;;;;;7.82;7.03;;;;;;;;;;5013711;28;20022;-57
2021/09/14 05:03:11;;;;;;;9.65;7.00;;;;;;;;;;5013731;28;20500;-59
2021/09/14 05:05:36;;;;;;;6.65;6.03;;;;;;;;;;5015051;28;20041;-59
2021/09/14 05:08:02;;;;;;;8.85;7.05;;;;;;;;;;5015444;28;20033;-61
2021/09/14 05:10:27;;;;;;;9.13;6.82;;;;;;;;;;5014651;28;20022;-59
2021/09/14 05:12:52;;;;;;;7.20;6.45;;;;;;;;;;5014459;28;20538;-61
2021/09/14 05:15:18;;;;;;;7.53;6.82;;;;;;;;;;5011668;28;20030;-61
2021/09/14 05:17:43;;;;;;;7.57;6.55;;;;;;;;;;5013499;28;20017;-59
2021/09/14 05:20:11;;;;;;;8.75;6.97;;;;;;;;;;5012346;28;20087;-59
2021/09/14 05:22:36;;;;;;;8.50;6.60;;;;;;;;;;5012154;28;20020;-58
2021/09/14 05:25:02;;;;;;;7.57;6.60;;;;;;;;;;5021863;28;20112;-59
2021/09/14 05:27:28;;;;;;;8.30;7.47;;;;;;;;;;5012192;28;20037;-60
2021/09/14 05:29:53;;;;;;;8.27;7.47;;;;;;;;;;5012983;28;20462;-58
2021/09/14 05:32:18;;;;;;;7.53;6.82;;;;;;;;;;5012245;28;20526;-60
2021/09/14 05:34:47;;;;;;;7.63;6.53;;;;;;;;;;5014304;28;20624;-60
2021/09/14 05:37:13;;;;;;;9.38;7.07;;;;;;;;;;5014593;28;20061;-60
2021/09/14 05:39:38;;;;;;;6.72;6.10;;;;;;;;;;5012737;28;20084;-60
2021/09/14 05:42:03;;;;;;;7.13;6.35;;;;;;;;;;5011788;28;20434;-59
2021/09/14 05:44:29;;;;;;;8.45;7.03;;;;;;;;;;5013378;28;20026;-57
2021/09/14 05:46:54;;;;;;;7.78;6.97;;;;;;;;;;5012892;28;20616;-60
2021/09/14 05:49:19;;;;;;;7.80;7.10;;;;;;;;;;5012422;28;20479;-61
2021/09/14 05:51:44;;;;;;;8.98;7.80;;;;;;;;;;5014889;28;20018;-59
2021/09/14 05:54:10;;;;;;;7.60;6.80;;;;;;;;;;5014849;28;20397;-61
2021/09/14 05:56:35;;;;;;;8.18;6.00;;;;;;;;;;5013468;28;20037;-60
2021/09/14 05:59:00;;;;;;;8.32;7.53;;;;;;;;;;5022552;28;20034;-59
2021/09/14 06:01:27;;;;;;;7.90;6.45;;;;;;;;;;5012479;28;20128;-59
2021/09/14 06:03:52;;;;;;;10.05;8.30;;;;;;;;;;5012317;28;20034;-62
2021/09/14 06:06:18;;;;;;;7.68;6.90;;;;;;;;;;5012145;28;20627;-59
2021/09/14 06:08:43;;;;;;;7.22;6.53;;;;;;;;;;5011826;28;20117;-60
2021/09/14 06:11:08;;;;;;;10.52;6.95;;;;;;;;;;5013105;28;20021;-59
2021/09/14 06:13:33;;;;;;;9.90;7.28;;;;;;;;;;5010948;28;20018;-56
2021/09/14 06:15:58;;;;;;;7.40;6.25;;;;;;;;;;5014224;28;20030;-59
2021/09/14 06:18:24;;;;;;;8.50;6.93;;;;;;;;;;5015395;28;20025;-60
2021/09/14 06:20:49;;;;;;;10.50;7.47;;;;;;;;;;5015375;28;20440;-59
2021/09/14 06:23:14;;;;;;;8.05;6.60;;;;;;;;;;5013710;28;20064;-56
2021/09/14 06:25:40;;;;;;;7.53;6.75;;;;;;;;;;5014654;28;20148;-59
2021/09/14 06:28:05;;;;;;;16.15;8.18;;;;;;;;;;5012630;28;20068;-58
2021/09/14 06:30:30;;;;;;;8.40;7.65;;;;;;;;;;5013345;28;20056;-65
2021/09/14 06:32:56;;;;;;;6.78;6.18;;;;;;;;;;5012465;28;20030;-59
2021/09/14 06:35:21;;;;;;;8.10;7.40;;;;;;;;;;5013779;28;20085;-59
2021/09/14 06:37:46;;;;;;;7.97;7.25;;;;;;;;;;5012862;28;20041;-55
2021/09/14 06:40:12;;;;;;;7.63;6.97;;;;;;;;;;5013393;28;20021;-57
2021/09/14 06:42:37;;;;;;;13.25;7.90;;;;;;;;;;5013371;28;20018;-58
2021/09/14 06:45:03;;;;;;;8.55;7.72;;;;;;;;;;5012632;28;20025;-58
2021/09/14 06:47:28;;;;;;;8.13;7.43;;;;;;;;;;5012698;28;20040;-59
2021/09/14 06:49:53;;;;;;;9.57;8.57;;;;;;;;;;5012810;28;20018;-58
2021/09/14 06:52:19;;;;;;;9.75;8.02;;;;;;;;;;5014234;28;20172;-58
2021/09/14 06:54:44;;;;;;;12.75;9.13;;;;;;;;;;5014113;28;20385;-58
2021/09/14 06:57:09;;;;;;;7.80;7.15;;;;;;;;;;5013790;28;20044;-54
2021/09/14 06:59:35;;;;;;;9.45;8.38;;;;;;;;;;5015361;28;20025;-58
2021/09/14 07:02:00;;;;;;;10.88;9.82;;;;;;;;;;5014301;28;20104;-53
2021/09/14 07:04:25;;;;;;;12.32;10.48;;;;;;;;;;5013696;28;20037;-55
2021/09/14 07:06:51;;;;;;;12.05;9.18;;;;;;;;;;5013077;28;20397;-54
2021/09/14 07:09:17;;;;;;;11.15;10.05;;;;;;;;;;5013447;28;20021;-59
2021/09/14 07:11:42;;;;;;;10.73;9.60;;;;;;;;;;5014242;28;20025;-53
2021/09/14 07:14:08;;;;;;;12.98;10.65;;;;;;;;;;5010902;28;20510;-60
2021/09/14 07:16:33;;;;;;;10.75;9.68;;;;;;;;;;5012650;28;20037;-57
2021/09/14 07:18:59;;;;;;;13.55;9.98;;;;;;;;;;5011209;28;20018;-56
2021/09/14 07:21:24;;;;;;;19.60;12.80;;;;;;;;;;5012800;28;20531;-56
2021/09/14 07:23:49;;;;;;;15.60;9.85;;;;;;;;;;5010232;28;20025;-56
2021/09/14 07:26:14;;;;;;;9.45;8.55;;;;;;;;;;5011074;28;20569;-57
2021/09/14 07:28:40;;;;;;;12.65;9.45;;;;;;;;;;5012048;28;20029;-55
2021/09/14 07:31:05;;;;;;;9.32;8.30;;;;;;;;;;5011635;28;20018;-57
2021/09/14 07:33:30;;;;;;;12.68;8.95;;;;;;;;;;5013380;28;20502;-55
2021/09/14 07:35:56;;;;;;;11.18;10.07;;;;;;;;;;5012571;28;20589;-55
2021/09/14 07:38:21;;;;;;;16.85;10.95;;;;;;;;;;5013170;28;20026;-59
2021/09/14 07:40:46;;;;;;;11.80;9.70;;;;;;;;;;5011740;28;20025;-57
2021/09/14 07:43:12;;;;;;;11.32;10.13;;;;;;;;;;5015036;28;20301;-57
2021/09/14 07:45:37;;;;;;;11.98;9.95;;;;;;;;;;5014940;28;20021;-58
2021/09/14 07:48:02;;;;;;;13.20;11.35;;;;;;;;;;5015743;28;20060;-53
2021/09/14 07:50:28;;;;;;;12.07;10.18;;;;;;;;;;5016133;28;20517;-59
2021/09/14 07:52:53;;;;;;;12.13;10.90;;;;;;;;;;5016156;28;20026;-58
2021/09/14 07:55:18;;;;;;;10.10;9.10;;;;;;;;;;5016342;28;20041;-57
2021/09/14 07:57:44;;;;;;;10.48;9.30;;;;;;;;;;5015482;28;20044;-58
2021/09/14 08:00:09;;;;;;;12.57;11.23;;;;;;;;;;5016848;28;20025;-55
2021/09/14 08:02:35;;;;;;;10.75;9.68;;;;;;;;;;5017186;28;20036;-59
2021/09/14 08:05:00;;;;;;;12.95;11.65;;;;;;;;;;5016423;28;20075;-60
2021/09/14 08:07:25;;;;;;;13.05;10.57;;;;;;;;;;5018731;28;20437;-58
2021/09/14 08:09:51;;;;;;;11.68;10.57;;;;;;;;;;5014853;28;20160;-56
2021/09/14 08:12:16;;;;;;;9.57;8.57;;;;;;;;;;5015488;28;20068;-57
2021/09/14 08:14:41;;;;;;;11.40;9.07;;;;;;;;;;5014449;28;20037;-59
2021/09/14 08:17:06;;;;;;;10.80;9.68;;;;;;;;;;5015691;28;20025;-61
2021/09/14 08:19:32;;;;;;;11.07;9.40;;;;;;;;;;5016274;28;20058;-59
2021/09/14 08:21:58;;;;;;;12.50;9.32;;;;;;;;;;5013999;28;20022;-61
2021/09/14 08:24:23;;;;;;;8.98;8.13;;;;;;;;;;5013741;28;20087;-58
2021/09/14 08:26:49;;;;;;;9.35;8.45;;;;;;;;;;5013681;28;20037;-59
2021/09/14 08:29:14;;;;;;;10.45;9.35;;;;;;;;;;5015919;28;20102;-57
2021/09/14 08:31:39;;;;;;;12.52;10.73;;;;;;;;;;5016917;28;20116;-59
2021/09/14 08:34:05;;;;;;;10.45;9.38;;;;;;;;;;5015629;28;20029;-61
2021/09/14 08:36:30;;;;;;;13.27;10.57;;;;;;;;;;5013139;28;20542;-60
2021/09/14 08:38:56;;;;;;;11.85;10.32;;;;;;;;;;5015991;28;20030;-60
2021/09/14 08:41:21;;;;;;;13.20;10.85;;;;;;;;;;5014247;28;20025;-60
2021/09/14 08:43:48;;;;;;;12.57;9.90;;;;;;;;;;5014669;28;20104;-56
2021/09/14 08:46:15;;;;;;;12.65;11.07;;;;;;;;;;5012719;28;20084;-59
2021/09/14 08:48:41;;;;;;;14.35;10.30;;;;;;;;;;5013744;28;20075;-59
2021/09/14 08:51:06;;;;;;;13.68;11.40;;;;;;;;;;5014253;28;20037;-59
2021/09/14 08:53:34;;;;;;;9.80;8.95;;;;;;;;;;5014593;28;20405;-60
2021/09/14 08:55:59;;;;;;;10.30;9.30;;;;;;;;;;5014163;28;20137;-65
2021/09/14 08:58:25;;;;;;;11.95;10.68;;;;;;;;;;5013490;28;20756;-62
2021/09/14 09:00:51;;;;;;;11.18;10.00;;;;;;;;;;5013817;28;20022;-63
2021/09/14 09:03:24;;;;;;;12.27;11.07;;;;;;;;;;5012119;28;20424;-62
2021/09/14 09:05:49;;;;;;;12.27;10.93;;;;;;;;;;5012126;28;20038;-63
2021/09/14 09:08:18;;;;;;;12.52;10.40;;;;;;;;;;5009498;28;20481;-60
2021/09/14 09:10:57;;;;;;;11.68;10.13;;;;;;;;;;5011547;28;20022;-58
2021/09/14 09:13:22;;;;;;;10.77;9.38;;;;;;;;;;5014376;28;20083;-60
2021/09/14 09:15:47;;;;;;;11.02;9.93;;;;;;;;;;5013125;28;20421;-59
2021/09/14 09:18:15;;;;;;;11.50;10.35;;;;;;;;;;5015224;28;20072;-60
2021/09/14 09:20:41;;;;;;;12.23;10.05;;;;;;;;;;5014655;28;20117;-60
2021/09/14 09:23:08;;;;;;;10.25;9.25;;;;;;;;;;5016517;28;20203;-60
2021/09/14 09:25:34;;;;;;;12.88;11.57;;;;;;;;;;5014772;28;20021;-60
2021/09/14 09:28:15;;;;;;;16.42;11.98;;;;;;;;;;5013971;28;20022;-59
2021/09/14 09:30:42;;;;;;;12.35;10.95;;;;;;;;;;5014313;28;20028;-59
2021/09/14 09:33:08;;;;;;;13.40;10.88;;;;;;;;;;5013471;28;20033;-57
2021/09/14 09:35:35;;;;;;;11.52;10.25;;;;;;;;;;5012149;28;20180;-59
2021/09/14 09:38:00;;;;;;;11.23;10.10;;;;;;;;;;5013895;28;20034;-60
2021/09/14 09:40:31;;;;;;;10.90;9.85;;;;;;;;;;5011742;28;20083;-59
2021/09/14 09:42:57;;;;;;;12.45;9.70;;;;;;;;;;5014226;28;20557;-62
2021/09/14 09:45:23;;;;;;;13.38;10.65;;;;;;;;;;5016513;28;20152;-62
2021/09/14 09:47:48;;;;;;;14.52;11.23;;;;;;;;;;5015838;28;20156;-59
2021/09/14 09:50:14;;;;;;;10.80;9.63;;;;;;;;;;5012244;28;20401;-59
2021/09/14 09:52:39;;;;;;;11.85;10.65;;;;;;;;;;5014972;28;20461;-60
2021/09/14 09:55:05;;;;;;;12.13;10.88;;;;;;;;;;5015404;28;20038;-58
2021/09/14 09:57:31;;;;;;;11.23;10.15;;;;;;;;;;5013371;28;20108;-60
2021/09/14 09:59:57;;;;;;;11.85;9.63;;;;;;;;;;5012955;28;20191;-58
2021/09/14 10:02:26;;;;;;;12.43;10.45;;;;;;;;;;5012540;28;20029;-59
2021/09/14 10:04:51;;;;;;;13.35;11.95;;;;;;;;;;5012157;28;20030;-58
2021/09/14 10:07:16;;;;;;;12.48;11.23;;;;;;;;;;5015011;28;20030;-58
2021/09/14 10:09:52;;;;;;;15.73;9.45;;;;;;;;;;5014177;28;20040;-58
2021/09/14 10:12:35;;;;;;;10.88;9.77;;;;;;;;;;5014042;28;20029;-61
2021/09/14 10:15:03;;;;;;;11.45;9.95;;;;;;;;;;5012379;28;20044;-61
2021/09/14 10:17:29;;;;;;;13.00;10.38;;;;;;;;;;5014886;28;20025;-60
2021/09/14 10:19:54;;;;;;;11.90;10.75;;;;;;;;;;5013159;28;20089;-55
2021/09/14 10:22:24;;;;;;;11.15;10.15;;;;;;;;;;5015291;28;20418;-59
2021/09/14 10:24:51;;;;;;;11.48;10.30;;;;;;;;;;5014722;28;20529;-62
2021/09/14 10:27:17;;;;;;;9.80;9.00;;;;;;;;;;5014451;28;20052;-63
2021/09/14 10:29:42;;;;;;;10.98;9.20;;;;;;;;;;5012319;28;20683;-62
2021/09/14 10:32:11;;;;;;;15.90;10.82;;;;;;;;;;5011012;28;20378;-61
2021/09/14 10:34:42;;;;;;;13.27;11.23;;;;;;;;;;5014361;28;20069;-61
2021/09/14 10:37:09;;;;;;;11.43;10.23;;;;;;;;;;5013779;28;20436;-62
2021/09/14 10:39:35;;;;;;;14.43;10.65;;;;;;;;;;5010752;28;20474;-61
2021/09/14 10:42:10;;;;;;;10.30;9.18;;;;;;;;;;5010871;28;20454;-60
2021/09/14 10:44:36;;;;;;;10.68;9.57;;;;;;;;;;5011390;28;20136;-62
2021/09/14 10:47:08;;;;;;;11.23;10.13;;;;;;;;;;5019164;28;20466;-58
2021/09/14 10:49:46;;;;;;;11.20;9.80;;;;;;;;;;5011926;28;20033;-59
2021/09/14 10:52:11;;;;;;;10.63;9.63;;;;;;;;;;5012977;28;20462;-58
2021/09/14 10:54:44;;;;;;;11.13;9.30;;;;;;;;;;5010753;28;20025;-59
2021/09/14 10:57:10;;;;;;;11.75;9.90;;;;;;;;;;5012505;28;20039;-59
2021/09/14 10:59:35;;;;;;;12.13;10.40;;;;;;;;;;5011855;28;20029;-62
2021/09/14 11:02:02;;;;;;;10.30;9.32;;;;;;;;;;5012207;28;20036;-58
2021/09/14 11:04:27;;;;;;;10.45;9.52;;;;;;;;;;5011654;28;20029;-59
2021/09/14 11:06:53;;;;;;;10.00;9.00;;;;;;;;;;5011589;28;20083;-60
2021/09/14 11:09:19;;;;;;;10.30;9.38;;;;;;;;;;5009691;28;20026;-59
2021/09/14 11:11:50;;;;;;;10.98;9.50;;;;;;;;;;5010761;28;20021;-59
2021/09/14 11:14:15;;;;;;;9.40;8.30;;;;;;;;;;5011830;28;20022;-57
2021/09/14 11:16:44;;;;;;;10.57;9.23;;;;;;;;;;5010885;28;20045;-61
2021/09/14 11:19:09;;;;;;;11.88;8.80;;;;;;;;;;5015839;28;20049;-62
2021/09/14 11:21:42;;;;;;;10.18;8.93;;;;;;;;;;5016083;28;20482;-60
2021/09/14 11:24:07;;;;;;;9.27;8.48;;;;;;;;;;5017946;28;20014;-58
2021/09/14 11:26:33;;;;;;;10.77;9.77;;;;;;;;;;5017828;28;20097;-61
2021/09/14 11:28:58;;;;;;;9.63;8.75;;;;;;;;;;5014712;28;20029;-61
2021/09/14 11:31:28;;;;;;;9.48;8.68;;;;;;;;;;5015788;28;20054;-57
2021/09/14 11:33:53;;;;;;;9.32;8.43;;;;;;;;;;5017181;28;20029;-63
2021/09/14 11:36:18;;;;;;;10.05;9.23;;;;;;;;;;5015284;28;20064;-62
2021/09/14 11:38:43;;;;;;;11.82;9.07;;;;;;;;;;5016295;28;20072;-62
2021/09/14 11:41:10;;;;;;;9.35;8.25;;;;;;;;;;5014884;28;20080;-60
2021/09/14 11:43:37;;;;;;;9.20;8.38;;;;;;;;;;5016404;28;20029;-62
2021/09/14 11:46:16;;;;;;;9.32;8.50;;;;;;;;;;5018909;28;20033;-60
2021/09/14 11:48:41;;;;;;;13.45;8.90;;;;;;;;;;5018106;28;20368;-61
2021/09/14 11:51:12;;;;;;;14.18;8.88;;;;;;;;;;5015864;28;20034;-62
2021/09/14 11:53:38;;;;;;;9.18;8.32;;;;;;;;;;5016821;28;20049;-63
2021/09/14 11:56:10;;;;;;;9.73;8.65;;;;;;;;;;5016858;28;20034;-66
2021/09/14 11:58:36;;;;;;;8.00;7.20;;;;;;;;;;5016357;28;20025;-61
2021/09/14 12:01:07;;;;;;;9.55;7.28;;;;;;;;;;5015278;28;20029;-59
2021/09/14 12:03:40;;;;;;;9.35;6.90;;;;;;;;;;5013993;28;20025;-65
2021/09/14 12:06:06;;;;;;;9.15;7.18;;;;;;;;;;5015525;28;20466;-60
2021/09/14 12:08:35;;;;;;;7.93;7.32;;;;;;;;;;5015471;28;20025;-61
2021/09/14 12:11:01;;;;;;;7.68;7.05;;;;;;;;;;5014198;28;20032;-61
2021/09/14 12:13:26;;;;;;;9.60;8.18;;;;;;;;;;5012839;28;20352;-58
2021/09/14 12:15:58;;;;;;;8.25;7.63;;;;;;;;;;5013993;28;20097;-60
2021/09/14 12:18:24;;;;;;;8.38;7.53;;;;;;;;;;5015519;28;20112;-59
2021/09/14 12:20:49;;;;;;;9.52;7.72;;;;;;;;;;5015574;28;20418;-61
2021/09/14 12:23:15;;;;;;;8.63;7.78;;;;;;;;;;5016582;28;20084;-60
2021/09/14 12:25:40;;;;;;;10.77;8.10;;;;;;;;;;5013672;28;20053;-56
2021/09/14 12:28:06;;;;;;;9.07;8.25;;;;;;;;;;5014823;28;20349;-59
2021/09/14 12:30:32;;;;;;;8.90;8.10;;;;;;;;;;5017106;28;20108;-58
2021/09/14 12:32:57;;;;;;;9.70;8.45;;;;;;;;;;5015189;28;20355;-60
2021/09/14 12:35:22;;;;;;;9.00;8.07;;;;;;;;;;5014069;28;20066;-60
2021/09/14 12:37:48;;;;;;;9.63;8.15;;;;;;;;;;5016578;28;20022;-61
2021/09/14 12:40:13;;;;;;;9.68;8.38;;;;;;;;;;5012042;28;20029;-62
2021/09/14 12:42:38;;;;;;;9.73;7.93;;;;;;;;;;5016174;28;20399;-60
2021/09/14 12:45:04;;;;;;;8.70;7.75;;;;;;;;;;5014739;28;20037;-58
2021/09/14 12:47:29;;;;;;;10.93;8.90;;;;;;;;;;5013425;28;20092;-58
2021/09/14 12:49:55;;;;;;;9.35;8.48;;;;;;;;;;5014223;28;20087;-58
2021/09/14 12:52:20;;;;;;;8.90;8.10;;;;;;;;;;5016241;28;20048;-58
2021/09/14 12:54:45;;;;;;;9.23;8.38;;;;;;;;;;5015230;28;20477;-59
2021/09/14 12:57:10;;;;;;;8.98;8.10;;;;;;;;;;5014393;28;20033;-60
2021/09/14 12:59:36;;;;;;;13.75;9.32;;;;;;;;;;5014824;28;20497;-60
2021/09/14 13:02:01;;;;;;;8.90;7.07;;;;;;;;;;5015409;28;20469;-59
2021/09/14 13:04:26;;;;;;;9.43;8.57;;;;;;;;;;5013401;28;20069;-59
2021/09/14 13:06:51;;;;;;;8.98;8.25;;;;;;;;;;5013939;28;20072;-61
2021/09/14 13:09:16;;;;;;;10.35;6.70;;;;;;;;;;5013985;28;20505;-60
2021/09/14 13:11:42;;;;;;;8.23;7.47;;;;;;;;;;5014576;28;20023;-59
2021/09/14 13:16:51;;;;;;;8.82;8.00;;;;;;;;;;5012962;28;20040;-57
2021/09/14 13:19:16;;;;;;;8.38;7.60;;;;;;;;;;5013803;28;20497;-61
2021/09/14 13:21:42;;;;;;;8.20;7.38;;;;;;;;;;5015154;28;20072;-60
2021/09/14 13:24:07;;;;;;;8.65;8.02;;;;;;;;;;5012946;28;20136;-59
2021/09/14 13:26:32;;;;;;;7.85;7.13;;;;;;;;;;5013581;28;20025;-55
2021/09/14 13:28:57;;;;;;;8.40;7.40;;;;;;;;;;5014726;28;20026;-61
2021/09/14 13:31:23;;;;;;;8.18;7.38;;;;;;;;;;5014407;28;20018;-60
2021/09/14 13:33:48;;;;;;;7.65;6.97;;;;;;;;;;5013574;28;20374;-59
2021/09/14 13:36:16;;;;;;;7.18;6.55;;;;;;;;;;5015084;28;20062;-57
2021/09/14 13:38:42;;;;;;;8.63;7.82;;;;;;;;;;5012710;28;20022;-60
2021/09/14 13:41:10;;;;;;;11.40;8.25;;;;;;;;;;5013885;28;20041;-55
2021/09/14 13:43:50;;;;;;;8.02;7.45;;;;;;;;;;5022237;28;20539;-58
2021/09/14 13:46:15;;;;;;;8.52;7.75;;;;;;;;;;5013584;28;20475;-62
2021/09/14 13:48:54;;;;;;;8.20;7.38;;;;;;;;;;5015216;28;20035;-62
2021/09/14 13:51:20;;;;;;;9.98;7.68;;;;;;;;;;5015384;28;20538;-60
2021/09/14 13:53:46;;;;;;;9.82;7.53;;;;;;;;;;5014658;28;20026;-61
2021/09/14 13:56:15;;;;;;;8.88;8.18;;;;;;;;;;5016631;28;20115;-57
2021/09/14 13:58:40;;;;;;;8.70;8.10;;;;;;;;;;5015122;28;20033;-61
2021/09/14 14:01:05;;;;;;;7.97;7.35;;;;;;;;;;5014555;28;20052;-60
2021/09/14 14:03:31;;;;;;;8.55;7.60;;;;;;;;;;5011749;28;20080;-61
2021/09/14 14:05:57;;;;;;;7.70;7.10;;;;;;;;;;5012341;28;20515;-59
2021/09/14 14:08:23;;;;;;;8.82;8.02;;;;;;;;;;5012167;28;20057;-59
2021/09/14 14:10:48;;;;;;;10.27;8.00;;;;;;;;;;5014972;28;20696;-59
2021/09/14 14:13:13;;;;;;;7.75;7.05;;;;;;;;;;5020077;28;21107;-59
2021/09/14 14:15:39;;;;;;;9.73;8.85;;;;;;;;;;5012815;28;20030;-64
2021/09/14 14:18:04;;;;;;;8.43;7.72;;;;;;;;;;5013465;28;20021;-60
2021/09/14 14:20:29;;;;;;;7.85;7.28;;;;;;;;;;5012917;28;20338;-59
2021/09/14 14:22:54;;;;;;;8.43;7.72;;;;;;;;;;5012724;28;20203;-56
2021/09/14 14:25:20;;;;;;;9.23;8.40;;;;;;;;;;5012100;28;20033;-61
2021/09/14 14:27:45;;;;;;;10.18;7.35;;;;;;;;;;5012642;28;20734;-58
2021/09/14 14:30:10;;;;;;;10.05;7.07;;;;;;;;;;5013343;28;20026;-59
2021/09/14 14:32:36;;;;;;;8.95;8.18;;;;;;;;;;5013230;28;20033;-61
2021/09/14 14:35:01;;;;;;;9.18;8.20;;;;;;;;;;5013687;28;20493;-60
2021/09/14 14:37:26;;;;;;;7.20;6.70;;;;;;;;;;5013894;28;20409;-58
2021/09/14 14:39:51;;;;;;;8.07;7.38;;;;;;;;;;5013567;28;20017;-61
2021/09/14 14:42:17;;;;;;;7.95;7.35;;;;;;;;;;5014374;28;20462;-60
2021/09/14 14:44:43;;;;;;;8.00;7.35;;;;;;;;;;5014749;28;20027;-62
2021/09/14 14:47:09;;;;;;;9.73;8.00;;;;;;;;;;5012647;28;20022;-65
2021/09/14 14:49:35;;;;;;;7.70;6.80;;;;;;;;;;5013216;28;20095;-61
2021/09/14 14:52:00;;;;;;;8.45;7.80;;;;;;;;;;5013683;28;20022;-58
2021/09/14 14:54:25;;;;;;;9.27;7.68;;;;;;;;;;5015651;28;20110;-61
2021/09/14 14:56:50;;;;;;;7.80;6.65;;;;;;;;;;5016508;28;20053;-60
2021/09/14 14:59:16;;;;;;;6.60;6.10;;;;;;;;;;5017802;28;20425;-61
2021/09/14 15:01:41;;;;;;;6.70;6.20;;;;;;;;;;5016710;28;20067;-61
2021/09/14 15:04:06;;;;;;;7.65;6.97;;;;;;;;;;5016367;28;20033;-62
2021/09/14 15:06:31;;;;;;;9.43;7.75;;;;;;;;;;5012859;28;20128;-59
2021/09/14 15:08:57;;;;;;;7.57;6.90;;;;;;;;;;5017358;28;20029;-61
2021/09/14 15:11:22;;;;;;;7.20;6.60;;;;;;;;;;5017358;28;20569;-62
2021/09/14 15:13:47;;;;;;;7.32;6.63;;;;;;;;;;5013685;28;20028;-62
2021/09/14 15:16:12;;;;;;;19.58;12.52;;;;;;;;;;5015687;28;20188;-62
2021/09/14 15:18:38;;;;;;;8.68;7.57;;;;;;;;;;5014143;28;20021;-61
2021/09/14 15:21:03;;;;;;;10.73;8.25;;;;;;;;;;5015525;28;20123;-64
2021/09/14 15:23:28;;;;;;;9.73;6.93;;;;;;;;;;5017580;28;20453;-63
2021/09/14 15:25:56;;;;;;;10.02;6.38;;;;;;;;;;5016158;28;20177;-59
2021/09/14 15:28:22;;;;;;;7.47;6.65;;;;;;;;;;5014401;28;20094;-65